Main page
METAR-TAF:

METAR-TAF

Airports :

Le Mars Municipal Airport

Le Mars, Iowa, United States

latitude: 42-46-41N, longitude: 096-11-37W, elevation: 1197 ft

Current weather observation

The report was made 23 minutes ago, at 13:55 UTC
Wind 14 mph from the South
Temperature 30°F
Humidity 100%
Pressure 30.02 in. Hg
Visibility: 7 miles
Clear sky

METAR: KLRJ 291355Z AUTO 17012KT 7SM CLR M01/M01 A3002 RMK AO2

Time: 08:18 (14:18 UTC)


TAF: missing

Weather observations and forecasts of more than 4000 airports (METAR and TAF reports).

The available stations are represented by yellow and red dots on the map.

Hover mouse over dot to see the name of the station.

Then click to see weather observations and forecasts.

To change the map : click on the green buttons with a black cross to zoom in, on the green button with a dash to zoom out, or on the green arrows for adjacent maps.


METAR-TAF: